KBKW/BKW METAR and TAF weather

Enter ICAO airport designator
Station Type Date Time Source
KBKW METAR 2022/05/24 12:51 UTC NOAA

KBKW 241251Z AUTO 13009KT 10SM OVC011 14/12 A3017 RMK AO2 SLP199 T01440122


Station Type Date Time Source
KBKW Decoded METAR 2022/05/24 12:51 UTC NOAA

RALEIGH COUNTY MEM AIRPORT , WV, United States (KBKW) 37-48N 081-07W 764M
May 24, 2022 - 08:51 AM EDT / 2022.05.24 1251 UTC
Wind: from the SE (130 degrees) at 10 MPH (9 KT):0
Visibility: 10 mile(s):0
Sky conditions: overcast
Temperature: 57.9 F (14.4 C)
Dew Point: 54.0 F (12.2 C)
Relative Humidity: 86%
Pressure (altimeter): 30.17 in. Hg (1021 hPa)
ob: KBKW 241251Z AUTO 13009KT 10SM OVC011 14/12 A3017 RMK AO2 SLP199 T01440122
cycle: 13

Station Type Date Time Source
KBKW TAF 2022/05/24 12:39 UTC NOAA

TAF KBKW 241137Z 2412/2512 11006KT P6SM OVC011
FM242200 10007KT P6SM BKN029
FM250000 11007KT P6SM BKN040
FM250400 13009KT P6SM BKN027
FM250600 13009KT P6SM BKN015

Example: see airport list